createdAt,value
2018-09-17T00:01:42.390Z,14.87
2018-09-17T00:04:45.477Z,14.84
2018-09-17T00:07:48.531Z,14.81
2018-09-17T00:10:51.562Z,14.75
2018-09-17T00:13:54.606Z,14.71
2018-09-17T00:16:57.634Z,14.70
2018-09-17T00:20:00.698Z,14.68
2018-09-17T00:23:03.767Z,14.59
2018-09-17T00:26:06.839Z,14.55
2018-09-17T00:29:09.916Z,14.55
2018-09-17T00:32:12.954Z,14.56
2018-09-17T00:35:16.002Z,14.56
2018-09-17T00:38:19.084Z,14.52
2018-09-17T00:41:22.134Z,14.43
2018-09-17T00:44:25.181Z,14.46
2018-09-17T00:47:33.946Z,14.41
2018-09-17T00:50:36.999Z,14.40
2018-09-17T00:53:40.098Z,14.46
2018-09-17T00:56:43.142Z,14.38
2018-09-17T00:59:46.211Z,14.43
2018-09-17T01:02:49.261Z,14.50
2018-09-17T01:05:52.327Z,14.46
2018-09-17T01:08:55.385Z,14.42
2018-09-17T01:11:58.431Z,14.33
2018-09-17T01:15:01.513Z,14.22
2018-09-17T01:18:04.564Z,14.15
2018-09-17T01:21:07.678Z,14.11
2018-09-17T01:24:10.728Z,14.08
2018-09-17T01:27:13.742Z,14.05
2018-09-17T01:30:16.889Z,13.96
2018-09-17T01:33:19.898Z,14.00
2018-09-17T01:36:22.958Z,14.01
2018-09-17T01:39:26.035Z,14.03
2018-09-17T01:42:29.039Z,13.94
2018-09-17T01:45:32.046Z,13.86
2018-09-17T01:48:35.046Z,13.88
2018-09-17T01:51:38.053Z,13.84
2018-09-17T01:54:41.071Z,13.87
2018-09-17T01:57:44.069Z,13.88
2018-09-17T02:00:47.182Z,13.82
2018-09-17T02:03:50.182Z,13.77
2018-09-17T02:06:53.208Z,13.70
2018-09-17T02:09:56.263Z,13.69
2018-09-17T02:12:59.256Z,13.59
2018-09-17T02:16:02.337Z,13.63
2018-09-17T02:19:05.433Z,13.73
2018-09-17T02:22:09.193Z,13.73
2018-09-17T02:25:12.198Z,13.72
2018-09-17T02:28:15.190Z,13.73
2018-09-17T02:31:18.283Z,13.65
2018-09-17T02:34:21.271Z,13.67
2018-09-17T02:37:24.282Z,13.68
2018-09-17T02:40:27.363Z,13.76
2018-09-17T02:43:30.417Z,13.62
2018-09-17T02:46:33.424Z,13.58
2018-09-17T02:49:36.422Z,13.62
2018-09-17T02:52:39.467Z,13.59
2018-09-17T02:55:42.498Z,13.56
2018-09-17T02:58:45.577Z,13.49
2018-09-17T03:01:48.574Z,13.51
2018-09-17T03:04:51.599Z,13.54
2018-09-17T03:07:54.678Z,13.56
2018-09-17T03:10:57.719Z,13.51
2018-09-17T03:14:00.698Z,13.52
2018-09-17T03:17:09.818Z,13.47
2018-09-17T03:20:12.854Z,13.57
2018-09-17T03:23:15.858Z,13.45
2018-09-17T03:26:19.362Z,13.40
2018-09-17T03:29:22.350Z,13.35
2018-09-17T03:32:25.350Z,13.30
2018-09-17T03:35:28.347Z,13.35
2018-09-17T03:38:43.758Z,13.45
2018-09-17T03:41:46.797Z,13.34
2018-09-17T03:44:49.829Z,13.39
2018-09-17T03:47:52.906Z,13.37
2018-09-17T03:50:55.923Z,13.38
2018-09-17T03:53:58.953Z,13.35
2018-09-17T03:57:01.994Z,13.35
2018-09-17T04:00:05.098Z,13.31
2018-09-17T04:03:08.370Z,13.33
2018-09-17T04:06:11.399Z,13.37
2018-09-17T04:09:14.444Z,13.34
2018-09-17T04:12:17.470Z,13.31
2018-09-17T04:15:20.490Z,13.31
2018-09-17T04:18:23.526Z,13.32
2018-09-17T04:21:26.551Z,13.28
2018-09-17T04:24:29.586Z,13.34
2018-09-17T04:27:32.634Z,13.23
2018-09-17T04:30:35.702Z,13.21
2018-09-17T04:33:41.021Z,13.10
2018-09-17T04:36:44.152Z,13.07
2018-09-17T04:39:47.225Z,12.99
2018-09-17T04:42:50.253Z,13.03
2018-09-17T04:45:53.243Z,13.07
2018-09-17T04:48:56.254Z,13.07
2018-09-17T04:51:59.243Z,12.96
2018-09-17T04:55:02.366Z,12.91
2018-09-17T04:58:05.409Z,12.91
2018-09-17T05:01:08.402Z,12.97
2018-09-17T05:04:11.406Z,12.94
2018-09-17T05:07:14.393Z,12.84
2018-09-17T05:10:17.422Z,12.82
2018-09-17T05:13:20.563Z,12.92
2018-09-17T05:16:23.498Z,12.92
2018-09-17T05:19:26.493Z,12.86
2018-09-17T05:22:29.478Z,12.91
2018-09-17T05:25:32.526Z,12.95
2018-09-17T05:28:35.538Z,12.93
2018-09-17T05:31:38.538Z,12.95
2018-09-17T05:34:41.555Z,12.99
2018-09-17T05:37:44.566Z,13.03
2018-09-17T05:40:47.605Z,13.07
2018-09-17T05:43:50.619Z,13.13
2018-09-17T05:46:53.602Z,13.22
2018-09-17T05:49:56.630Z,13.32
2018-09-17T05:52:59.614Z,13.28
2018-09-17T05:56:02.609Z,13.42
2018-09-17T05:59:05.882Z,13.59
2018-09-17T06:02:08.906Z,13.79
2018-09-17T06:05:11.982Z,14.00
2018-09-17T06:08:14.974Z,14.38
2018-09-17T06:11:18.047Z,15.01
2018-09-17T06:14:21.034Z,15.73
2018-09-17T06:17:24.036Z,16.57
2018-09-17T06:20:27.042Z,16.92
2018-09-17T06:23:30.078Z,17.15
2018-09-17T06:26:33.158Z,17.73
2018-09-17T06:29:36.119Z,18.13
2018-09-17T06:32:39.115Z,19.10
2018-09-17T06:35:42.126Z,20.60
2018-09-17T06:38:45.170Z,21.47
2018-09-17T06:41:48.211Z,22.63
2018-09-17T06:44:51.305Z,23.47
2018-09-17T06:47:54.314Z,24.44
2018-09-17T06:50:57.367Z,25.37
2018-09-17T06:54:00.399Z,26.17
2018-09-17T06:57:03.491Z,26.87
2018-09-17T07:00:06.605Z,27.30
2018-09-17T07:03:09.634Z,27.11
2018-09-17T07:06:12.684Z,26.91
2018-09-17T07:09:15.714Z,27.34
2018-09-17T07:12:18.753Z,27.13
2018-09-17T07:15:21.782Z,26.63
2018-09-17T07:18:24.785Z,25.04
2018-09-17T07:21:27.813Z,23.87
2018-09-17T07:24:30.828Z,22.56
2018-09-17T07:27:33.858Z,21.91
2018-09-17T07:30:36.909Z,21.50
2018-09-17T07:33:39.928Z,21.21
2018-09-17T07:36:42.980Z,20.92
2018-09-17T07:39:45.990Z,20.72
2018-09-17T07:42:49.028Z,20.56
2018-09-17T07:45:52.029Z,20.27
2018-09-17T07:48:55.019Z,20.25
2018-09-17T07:51:58.056Z,20.10
2018-09-17T07:55:01.034Z,19.99
2018-09-17T07:58:04.197Z,19.91
2018-09-17T08:01:07.309Z,19.85
2018-09-17T08:04:10.318Z,19.94
2018-09-17T08:07:13.330Z,20.00
2018-09-17T08:10:19.454Z,20.08
2018-09-17T08:13:22.454Z,20.17
2018-09-17T08:16:25.542Z,20.26
2018-09-17T08:19:28.526Z,20.43
2018-09-17T08:22:31.534Z,20.66
2018-09-17T08:25:34.568Z,20.92
2018-09-17T08:28:37.691Z,21.21
2018-09-17T08:31:40.698Z,21.51
2018-09-17T08:34:43.709Z,21.81
2018-09-17T08:37:46.727Z,21.89
2018-09-17T08:40:49.747Z,22.07
2018-09-17T08:43:52.740Z,22.33
2018-09-17T08:46:55.746Z,22.64
2018-09-17T08:49:58.746Z,22.88
2018-09-17T08:53:01.846Z,23.15
2018-09-17T08:56:10.770Z,23.28
2018-09-17T08:59:19.386Z,23.32
2018-09-17T09:02:28.188Z,23.58
2018-09-17T09:05:34.587Z,23.88
2018-09-17T09:08:37.586Z,24.05
2018-09-17T09:11:46.217Z,24.30
2018-09-17T09:14:53.780Z,24.54
2018-09-17T09:17:56.771Z,24.56
2018-09-17T09:20:59.767Z,24.86
2018-09-17T09:24:02.803Z,24.63
2018-09-17T09:27:05.832Z,24.54
2018-09-17T09:30:08.877Z,24.59
2018-09-17T09:33:11.902Z,24.61
2018-09-17T09:36:14.933Z,24.77
2018-09-17T09:39:17.957Z,25.04
2018-09-17T09:42:20.950Z,25.18
2018-09-17T09:45:23.982Z,25.35
2018-09-17T09:48:27.014Z,25.30
2018-09-17T09:51:30.014Z,25.48
2018-09-17T09:54:33.021Z,25.54
2018-09-17T09:57:36.013Z,25.62
2018-09-17T10:00:44.766Z,25.85
2018-09-17T10:03:52.442Z,26.16
2018-09-17T10:06:55.434Z,26.26
2018-09-17T10:10:04.011Z,26.48
2018-09-17T10:13:12.616Z,26.55
2018-09-17T10:16:17.058Z,26.64
2018-09-17T10:19:22.793Z,26.82
2018-09-17T10:22:25.777Z,26.84
2018-09-17T10:25:28.801Z,26.90
2018-09-17T10:28:31.790Z,27.06
2018-09-17T10:31:34.809Z,27.26
2018-09-17T10:34:37.823Z,27.37
2018-09-17T10:37:40.814Z,27.59
2018-09-17T10:40:43.854Z,27.65
2018-09-17T10:43:46.862Z,27.78
2018-09-17T10:46:49.910Z,27.96
2018-09-17T10:49:52.902Z,28.03
2018-09-17T10:52:55.912Z,28.10
2018-09-17T10:55:58.922Z,28.06
2018-09-17T10:59:01.918Z,27.96
2018-09-17T11:02:04.974Z,28.02
2018-09-17T11:05:07.998Z,28.17
2018-09-17T11:08:11.029Z,28.12
2018-09-17T11:11:14.031Z,27.74
2018-09-17T11:14:17.026Z,27.83
2018-09-17T11:17:20.111Z,27.93
2018-09-17T11:20:23.070Z,28.02
2018-09-17T11:23:26.081Z,28.20
2018-09-17T11:26:29.090Z,27.92
2018-09-17T11:29:32.091Z,28.04
2018-09-17T11:32:35.095Z,28.12
2018-09-17T11:35:38.138Z,28.24
2018-09-17T11:38:41.181Z,28.44
2018-09-17T11:41:44.231Z,28.45
2018-09-17T11:44:47.253Z,28.53
2018-09-17T11:47:50.282Z,28.67
2018-09-17T11:50:53.350Z,28.75
2018-09-17T11:53:56.422Z,28.79
2018-09-17T11:56:59.439Z,28.88
2018-09-17T12:00:02.537Z,29.00
2018-09-17T12:04:09.786Z,29.05
2018-09-17T12:07:18.498Z,29.10
2018-09-17T12:10:21.512Z,29.08
2018-09-17T12:13:24.570Z,29.31
2018-09-17T12:16:27.615Z,29.40
2018-09-17T12:19:30.688Z,29.44
2018-09-17T12:22:33.721Z,29.53
2018-09-17T12:25:36.789Z,29.49
2018-09-17T12:28:39.845Z,29.60
2018-09-17T12:31:42.915Z,29.49
2018-09-17T12:34:45.974Z,29.46
2018-09-17T12:37:49.063Z,29.25
2018-09-17T12:40:52.113Z,29.10
2018-09-17T12:43:55.217Z,29.04
2018-09-17T12:46:58.245Z,29.03
2018-09-17T12:50:01.257Z,29.13
2018-09-17T12:53:04.302Z,29.04
2018-09-17T12:56:07.328Z,29.27
2018-09-17T12:59:10.366Z,29.28
2018-09-17T13:02:13.502Z,29.59
2018-09-17T13:05:16.545Z,29.50
2018-09-17T13:08:19.614Z,29.45
2018-09-17T13:11:22.687Z,29.22
2018-09-17T13:14:25.714Z,29.31
2018-09-17T13:17:28.761Z,28.99
2018-09-17T13:20:31.761Z,28.83
2018-09-17T13:23:34.803Z,28.74
2018-09-17T13:26:38.242Z,28.76
2018-09-17T13:29:41.266Z,28.74
2018-09-17T13:32:44.288Z,28.75
2018-09-17T13:35:47.319Z,28.85
2018-09-17T13:38:50.362Z,28.77
2018-09-17T13:41:53.385Z,28.76
2018-09-17T13:44:56.445Z,28.79
2018-09-17T13:47:59.564Z,29.01
2018-09-17T13:51:02.573Z,29.56
2018-09-17T13:54:05.597Z,30.18
2018-09-17T13:57:08.637Z,30.59
2018-09-17T14:00:11.709Z,30.84
2018-09-17T14:03:14.785Z,31.00
2018-09-17T14:06:17.795Z,30.84
2018-09-17T14:09:20.829Z,30.71
2018-09-17T14:12:23.862Z,30.53
2018-09-17T14:15:26.927Z,30.27
2018-09-17T14:18:30.413Z,30.26
2018-09-17T14:21:33.434Z,30.26
2018-09-17T14:24:36.485Z,30.33
2018-09-17T14:27:39.659Z,30.16
2018-09-17T14:30:42.664Z,29.87
2018-09-17T14:33:45.992Z,29.80
2018-09-17T14:36:49.019Z,29.74
2018-09-17T14:39:52.078Z,29.77
2018-09-17T14:42:55.087Z,29.81
2018-09-17T14:45:58.124Z,29.66
2018-09-17T14:49:01.154Z,29.35
2018-09-17T14:52:04.221Z,29.24
2018-09-17T14:55:07.193Z,28.97
2018-09-17T14:58:10.894Z,28.74
2018-09-17T15:01:13.934Z,28.71
2018-09-17T15:04:16.998Z,28.87
2018-09-17T15:07:19.960Z,29.06
2018-09-17T15:10:23.020Z,29.21
2018-09-17T15:13:26.014Z,29.07
2018-09-17T15:16:29.084Z,28.97
2018-09-17T15:19:32.046Z,28.87
2018-09-17T15:22:35.069Z,28.75
2018-09-17T15:25:38.066Z,28.52
2018-09-17T15:28:41.161Z,28.37
2018-09-17T15:31:44.158Z,28.21
2018-09-17T15:34:47.204Z,28.10
2018-09-17T15:37:50.730Z,28.01
2018-09-17T15:40:53.917Z,27.99
2018-09-17T15:43:57.157Z,28.01
2018-09-17T15:47:00.252Z,27.97
2018-09-17T15:50:03.287Z,27.86
2018-09-17T15:53:06.311Z,27.87
2018-09-17T15:56:09.330Z,27.80
2018-09-17T15:59:12.339Z,27.74
2018-09-17T16:02:15.432Z,27.65
2018-09-17T16:05:18.454Z,27.64
2018-09-17T16:08:21.449Z,27.51
2018-09-17T16:11:24.533Z,27.40
2018-09-17T16:14:27.573Z,27.33
2018-09-17T16:17:30.594Z,27.18
2018-09-17T16:20:33.680Z,27.01
2018-09-17T16:23:36.610Z,26.85
2018-09-17T16:26:39.622Z,26.65
2018-09-17T16:29:42.705Z,26.45
2018-09-17T16:32:45.690Z,26.25
2018-09-17T16:35:48.745Z,26.08
2018-09-17T16:38:51.790Z,25.92
2018-09-17T16:41:54.837Z,25.71
2018-09-17T16:44:57.859Z,25.46
2018-09-17T16:48:00.910Z,25.18
2018-09-17T16:51:04.178Z,25.05
2018-09-17T16:54:07.947Z,24.77
2018-09-17T16:57:11.111Z,24.58
2018-09-17T17:00:14.210Z,24.39
2018-09-17T17:03:17.286Z,24.17
2018-09-17T17:06:20.331Z,23.98
2018-09-17T17:09:23.353Z,23.75
2018-09-17T17:12:26.402Z,23.54
2018-09-17T17:15:29.458Z,23.36
2018-09-17T17:18:32.517Z,23.22
2018-09-17T17:21:37.819Z,23.01
2018-09-17T17:24:42.331Z,22.85
2018-09-17T17:27:45.547Z,22.72
2018-09-17T17:30:48.784Z,22.63
2018-09-17T17:33:52.517Z,22.57
2018-09-17T17:37:00.606Z,22.47
2018-09-17T17:40:04.876Z,22.37
2018-09-17T17:43:08.112Z,22.24
2018-09-17T17:46:11.425Z,22.08
2018-09-17T17:49:14.415Z,21.99
2018-09-17T17:52:17.708Z,21.91
2018-09-17T17:55:20.764Z,21.79
2018-09-17T17:58:23.963Z,21.65
2018-09-17T18:01:27.529Z,21.54
2018-09-17T18:04:30.522Z,21.40
2018-09-17T18:07:34.126Z,21.23
2018-09-17T18:10:37.285Z,21.07
2018-09-17T18:13:40.419Z,20.99
2018-09-17T18:16:43.494Z,20.88
2018-09-17T18:19:46.587Z,20.78
2018-09-17T18:22:49.631Z,20.64
2018-09-17T18:25:52.840Z,20.52
2018-09-17T18:28:56.151Z,20.37
2018-09-17T18:32:00.647Z,20.37
2018-09-17T18:35:04.811Z,20.32
2018-09-17T18:38:08.591Z,20.21
2018-09-17T18:41:14.019Z,20.07
2018-09-17T18:58:07.688Z,19.49
2018-09-17T19:01:12.671Z,19.39
2018-09-17T19:04:17.170Z,19.31
2018-09-17T19:07:22.657Z,19.24
2018-09-17T19:10:29.906Z,19.17
2018-09-17T19:13:35.473Z,19.13
2018-09-17T19:16:55.612Z,19.06
2018-09-17T19:20:00.048Z,19.00
2018-09-17T19:23:09.596Z,18.91
2018-09-17T19:26:14.558Z,18.82
2018-09-17T19:29:21.237Z,18.71
2018-09-17T19:32:25.666Z,18.70
2018-09-17T19:35:31.247Z,18.57
2018-09-17T19:38:40.782Z,18.57
2018-09-17T19:41:45.357Z,18.58
2018-09-17T19:44:54.880Z,18.58
2018-09-17T19:47:59.576Z,18.47
2018-09-17T19:51:19.919Z,18.43
2018-09-17T19:57:44.536Z,18.22
2018-09-17T20:00:49.848Z,18.16
2018-09-17T20:03:55.147Z,18.04
2018-09-17T20:07:02.467Z,18.05
2018-09-17T20:10:09.141Z,17.98
2018-09-17T20:13:14.043Z,17.93
2018-09-17T20:16:19.176Z,17.91
2018-09-17T20:19:24.318Z,17.83
2018-09-17T20:22:29.287Z,17.73
2018-09-17T20:25:33.802Z,17.73
2018-09-17T20:28:39.361Z,17.65
2018-09-17T20:31:50.284Z,17.66
2018-09-17T20:34:56.048Z,17.63
2018-09-17T20:38:10.308Z,17.61
2018-09-17T20:41:14.818Z,17.59
2018-09-17T20:44:19.250Z,17.39
2018-09-17T20:47:23.803Z,17.39
2018-09-17T20:53:45.411Z,17.17
2018-09-17T20:56:55.222Z,17.10
2018-09-17T21:00:00.772Z,17.04
2018-09-17T21:03:05.238Z,17.05
2018-09-17T21:06:09.681Z,17.01
2018-09-17T21:09:14.108Z,16.95
2018-09-17T21:12:19.780Z,17.00
2018-09-17T21:15:24.514Z,17.04
2018-09-17T21:18:33.228Z,17.02
2018-09-17T21:21:37.797Z,16.94
2018-09-17T21:24:44.762Z,16.80
2018-09-17T21:27:49.305Z,16.78
2018-09-17T21:30:53.867Z,16.83
2018-09-17T21:33:58.305Z,16.73
2018-09-17T21:37:02.790Z,16.65
2018-09-17T21:40:07.335Z,16.69
2018-09-17T21:43:11.874Z,16.59
2018-09-17T21:46:16.374Z,16.50
2018-09-17T21:49:21.491Z,16.48
2018-09-17T21:52:25.935Z,16.40
2018-09-17T21:55:30.434Z,16.37
2018-09-17T21:58:34.927Z,16.22
2018-09-17T22:01:39.318Z,16.21
2018-09-17T22:04:43.840Z,16.20
2018-09-17T22:07:48.330Z,16.18
2018-09-17T22:10:52.889Z,16.15
2018-09-17T22:13:57.378Z,16.20
2018-09-17T22:17:01.928Z,16.18
2018-09-17T22:20:06.416Z,16.16
2018-09-17T22:23:11.045Z,16.13
2018-09-17T22:26:15.482Z,16.08
2018-09-17T22:29:19.904Z,16.03
2018-09-17T22:32:24.367Z,16.01
2018-09-17T22:35:28.895Z,16.04
2018-09-17T22:38:33.398Z,15.99
2018-09-17T22:41:38.103Z,15.95
2018-09-17T22:44:42.530Z,15.89
2018-09-17T22:47:46.990Z,15.86
2018-09-17T22:50:51.442Z,15.79
2018-09-17T22:53:55.889Z,15.69
2018-09-17T22:57:00.342Z,15.75
2018-09-17T23:00:05.109Z,15.76
2018-09-17T23:03:09.577Z,15.64
2018-09-17T23:06:14.014Z,15.64
2018-09-17T23:09:18.467Z,15.59
2018-09-17T23:12:22.981Z,15.61
2018-09-17T23:15:27.421Z,15.58
2018-09-17T23:18:31.911Z,15.50
2018-09-17T23:21:36.358Z,15.46
2018-09-17T23:24:40.880Z,15.50
2018-09-17T23:27:45.392Z,15.40
2018-09-17T23:30:49.911Z,15.44
2018-09-17T23:33:54.380Z,15.40
2018-09-17T23:36:58.881Z,15.38
2018-09-17T23:40:03.377Z,15.34
2018-09-17T23:43:07.905Z,15.24
2018-09-17T23:46:12.355Z,15.27
2018-09-17T23:49:16.807Z,15.24
2018-09-17T23:52:21.305Z,15.26
2018-09-17T23:55:26.035Z,15.24
2018-09-17T23:58:30.472Z,15.17
